sensor_id;sensor_type;location;lat;lon;timestamp;pressure;altitude;pressure_sealevel;temperature;humidity
57616;BME280;43816;52.054;-9.494;2023-04-27T00:00:10;100732.97;;;21.51;37.73
57616;BME280;43816;52.054;-9.494;2023-04-27T00:00:20;100755.44;;;21.61;37.73
57616;BME280;43816;52.054;-9.494;2023-04-27T00:00:31;100746.56;;;21.59;37.71
57616;BME280;43816;52.054;-9.494;2023-04-27T00:00:41;100757.34;;;21.61;37.81
57616;BME280;43816;52.054;-9.494;2023-04-27T00:00:51;100744.41;;;21.55;37.82
57616;BME280;43816;52.054;-9.494;2023-04-27T00:01:08;100752.50;;;21.63;37.42
57616;BME280;43816;52.054;-9.494;2023-04-27T00:01:19;100758.41;;;21.60;37.88
57616;BME280;43816;52.054;-9.494;2023-04-27T00:01:29;100760.06;;;21.61;37.80
57616;BME280;43816;52.054;-9.494;2023-04-27T00:01:39;100753.28;;;21.57;37.78
57616;BME280;43816;52.054;-9.494;2023-04-27T00:01:49;100753.94;;;21.59;37.80
57616;BME280;43816;52.054;-9.494;2023-04-27T00:02:00;100746.94;;;21.56;37.69
57616;BME280;43816;52.054;-9.494;2023-04-27T00:02:10;100760.72;;;21.63;37.80
57616;BME280;43816;52.054;-9.494;2023-04-27T00:02:20;100760.06;;;21.61;37.83
57616;BME280;43816;52.054;-9.494;2023-04-27T00:02:31;100753.94;;;21.59;37.69
57616;BME280;43816;52.054;-9.494;2023-04-27T00:02:41;100756.50;;;21.60;37.83
57616;BME280;43816;52.054;-9.494;2023-04-27T00:02:52;100760.06;;;21.61;37.86
57616;BME280;43816;52.054;-9.494;2023-04-27T00:03:02;100743.75;;;21.53;37.91
57616;BME280;43816;52.054;-9.494;2023-04-27T00:03:12;100744.41;;;21.55;37.59
57616;BME280;43816;52.054;-9.494;2023-04-27T00:03:22;100748.19;;;21.54;37.71
57616;BME280;43816;52.054;-9.494;2023-04-27T00:03:33;100743.38;;;21.56;37.80
57616;BME280;43816;52.054;-9.494;2023-04-27T00:03:43;100744.41;;;21.55;37.91
57616;BME280;43816;52.054;-9.494;2023-04-27T00:03:53;100752.91;;;21.60;37.73
57616;BME280;43816;52.054;-9.494;2023-04-27T00:04:04;100740.34;;;21.51;37.89
57616;BME280;43816;52.054;-9.494;2023-04-27T00:04:15;100748.00;;;21.55;37.58
57616;BME280;43816;52.054;-9.494;2023-04-27T00:04:25;100760.06;;;21.61;37.68
57616;BME280;43816;52.054;-9.494;2023-04-27T00:04:35;100743.75;;;21.53;37.54
57616;BME280;43816;52.054;-9.494;2023-04-27T00:04:46;100738.66;;;21.50;37.75
57616;BME280;43816;52.054;-9.494;2023-04-27T00:04:56;100760.06;;;21.61;37.43
57616;BME280;43816;52.054;-9.494;2023-04-27T00:05:06;100750.56;;;21.57;37.89
57616;BME280;43816;52.054;-9.494;2023-04-27T00:05:17;100759.22;;;21.60;37.73
57616;BME280;43816;52.054;-9.494;2023-04-27T00:05:27;100741.00;;;21.53;37.89
57616;BME280;43816;52.054;-9.494;2023-04-27T00:05:38;100748.84;;;21.56;37.95
57616;BME280;43816;52.054;-9.494;2023-04-27T00:05:48;100752.91;;;21.60;38.00
57616;BME280;43816;52.054;-9.494;2023-04-27T00:05:58;100754.97;;;21.58;37.34
57616;BME280;43816;52.054;-9.494;2023-04-27T00:06:09;100757.34;;;21.61;37.87
57616;BME280;43816;52.054;-9.494;2023-04-27T00:06:19;100746.28;;;21.54;37.56
57616;BME280;43816;52.054;-9.494;2023-04-27T00:06:29;100750.56;;;21.57;38.22
57616;BME280;43816;52.054;-9.494;2023-04-27T00:06:40;100751.22;;;21.59;37.95
57616;BME280;43816;52.054;-9.494;2023-04-27T00:06:50;100750.81;;;21.62;37.80
57616;BME280;43816;52.054;-9.494;2023-04-27T00:07:00;100748.00;;;21.55;37.84
57616;BME280;43816;52.054;-9.494;2023-04-27T00:07:11;100740.63;;;21.56;37.94
57616;BME280;43816;52.054;-9.494;2023-04-27T00:07:21;100710.16;;;21.29;37.71
57616;BME280;43816;52.054;-9.494;2023-04-27T00:07:31;100749.50;;;21.58;37.81
57616;BME280;43816;52.054;-9.494;2023-04-27T00:07:41;100722.97;;;21.43;37.57
57616;BME280;43816;52.054;-9.494;2023-04-27T00:07:52;100745.00;;;21.50;37.69
57616;BME280;43816;52.054;-9.494;2023-04-27T00:08:02;100761.78;;;21.62;37.80
57616;BME280;43816;52.054;-9.494;2023-04-27T00:08:12;100740.16;;;21.52;38.04
57616;BME280;43816;52.054;-9.494;2023-04-27T00:08:23;100740.34;;;21.51;37.57
57616;BME280;43816;52.054;-9.494;2023-04-27T00:08:33;100754.50;;;21.54;37.63
57616;BME280;43816;52.054;-9.494;2023-04-27T00:08:44;100753.28;;;21.57;37.53
57616;BME280;43816;52.054;-9.494;2023-04-27T00:08:54;100750.19;;;21.60;37.83
57616;BME280;43816;52.054;-9.494;2023-04-27T00:09:04;100755.66;;;21.60;37.91
57616;BME280;43816;52.054;-9.494;2023-04-27T00:09:14;100750.75;;;21.55;37.71
57616;BME280;43816;52.054;-9.494;2023-04-27T00:09:25;100742.72;;;21.54;37.99
57616;BME280;43816;52.054;-9.494;2023-04-27T00:09:35;100748.66;;;21.57;37.76
57616;BME280;43816;52.054;-9.494;2023-04-27T00:09:45;100752.22;;;21.58;37.79
57616;BME280;43816;52.054;-9.494;2023-04-27T00:09:56;100746.75;;;21.58;37.75
57616;BME280;43816;52.054;-9.494;2023-04-27T00:10:07;100747.13;;;21.55;37.77
57616;BME280;43816;52.054;-9.494;2023-04-27T00:10:17;100760.91;;;21.61;37.62
57616;BME280;43816;52.054;-9.494;2023-04-27T00:10:28;100742.72;;;21.54;37.81
57616;BME280;43816;52.054;-9.494;2023-04-27T00:10:38;100758.41;;;21.60;37.67
57616;BME280;43816;52.054;-9.494;2023-04-27T00:10:48;100757.53;;;21.59;37.79
57616;BME280;43816;52.054;-9.494;2023-04-27T00:10:59;100760.91;;;21.61;37.80
57616;BME280;43816;52.054;-9.494;2023-04-27T00:11:09;100767.25;;;21.62;37.76
57616;BME280;43816;52.054;-9.494;2023-04-27T00:11:20;100749.88;;;21.55;37.71
57616;BME280;43816;52.054;-9.494;2023-04-27T00:11:30;100754.59;;;21.61;37.89
57616;BME280;43816;52.054;-9.494;2023-04-27T00:11:40;100754.97;;;21.58;37.58
57616;BME280;43816;52.054;-9.494;2023-04-27T00:11:51;100750.56;;;21.57;37.78
57616;BME280;43816;52.054;-9.494;2023-04-27T00:12:01;100754.13;;;21.57;37.67
57616;BME280;43816;52.054;-9.494;2023-04-27T00:12:11;100746.47;;;21.53;38.02
57616;BME280;43816;52.054;-9.494;2023-04-27T00:12:22;100751.78;;;21.54;38.09
57616;BME280;43816;52.054;-9.494;2023-04-27T00:12:32;100750.56;;;21.57;37.65
57616;BME280;43816;52.054;-9.494;2023-04-27T00:12:42;100743.47;;;21.48;37.87
57616;BME280;43816;52.054;-9.494;2023-04-27T00:12:53;100763.88;;;21.60;37.91
57616;BME280;43816;52.054;-9.494;2023-04-27T00:13:03;100750.09;;;21.53;37.68
57616;BME280;43816;52.054;-9.494;2023-04-27T00:13:13;100738.66;;;21.50;37.64
57616;BME280;43816;52.054;-9.494;2023-04-27T00:13:24;100744.31;;;21.48;37.76
57616;BME280;43816;52.054;-9.494;2023-04-27T00:13:34;100747.53;;;21.52;37.80
57616;BME280;43816;52.054;-9.494;2023-04-27T00:13:44;100741.00;;;21.53;37.67
57616;BME280;43816;52.054;-9.494;2023-04-27T00:13:55;100755.66;;;21.60;37.51
57616;BME280;43816;52.054;-9.494;2023-04-27T00:14:05;100756.22;;;21.55;37.77
57616;BME280;43816;52.054;-9.494;2023-04-27T00:14:15;100749.22;;;21.53;37.84
57616;BME280;43816;52.054;-9.494;2023-04-27T00:14:26;100751.41;;;21.57;37.78
57616;BME280;43816;52.054;-9.494;2023-04-27T00:14:36;100753.66;;;21.54;37.80
57616;BME280;43816;52.054;-9.494;2023-04-27T00:14:46;100743.94;;;21.51;37.55
57616;BME280;43816;52.054;-9.494;2023-04-27T00:14:57;100754.97;;;21.58;37.42
57616;BME280;43816;52.054;-9.494;2023-04-27T00:15:08;100731.69;;;21.47;37.91
57616;BME280;43816;52.054;-9.494;2023-04-27T00:15:18;100752.63;;;21.55;37.84
57616;BME280;43816;52.054;-9.494;2023-04-27T00:15:28;100761.31;;;21.58;37.61
57616;BME280;43816;52.054;-9.494;2023-04-27T00:15:39;100752.81;;;21.53;37.75
57616;BME280;43816;52.054;-9.494;2023-04-27T00:15:49;100746.47;;;21.53;37.61
57616;BME280;43816;52.054;-9.494;2023-04-27T00:15:59;100748.84;;;21.56;37.72
57616;BME280;43816;52.054;-9.494;2023-04-27T00:16:10;100745.00;;;21.50;38.01
57616;BME280;43816;52.054;-9.494;2023-04-27T00:16:20;100759.22;;;21.60;37.53
57616;BME280;43816;52.054;-9.494;2023-04-27T00:16:30;100746.84;;;21.50;37.83
57616;BME280;43816;52.054;-9.494;2023-04-27T00:16:41;100758.59;;;21.58;37.77
57616;BME280;43816;52.054;-9.494;2023-04-27T00:16:51;100735.41;;;21.46;37.89
57616;BME280;43816;52.054;-9.494;2023-04-27T00:17:01;100696.56;;;21.21;38.25
57616;BME280;43816;52.054;-9.494;2023-04-27T00:17:12;100756.03;;;21.57;37.81
57616;BME280;43816;52.054;-9.494;2023-04-27T00:17:22;100745.47;;;21.54;37.87
57616;BME280;43816;52.054;-9.494;2023-04-27T00:17:32;100737.63;;;21.51;37.95
57616;BME280;43816;52.054;-9.494;2023-04-27T00:17:43;100760.25;;;21.59;37.90
57616;BME280;43816;52.054;-9.494;2023-04-27T00:17:53;100741.19;;;21.51;37.54
57616;BME280;43816;52.054;-9.494;2023-04-27T00:18:04;100759.78;;;21.56;37.66
57616;BME280;43816;52.054;-9.494;2023-04-27T00:18:14;100756.50;;;21.60;37.74
57616;BME280;43816;52.054;-9.494;2023-04-27T00:18:24;100749.22;;;21.53;37.76
57616;BME280;43816;52.054;-9.494;2023-04-27T00:18:35;100755.84;;;21.58;37.88
57616;BME280;43816;52.054;-9.494;2023-04-27T00:18:45;100749.88;;;21.55;37.84
57616;BME280;43816;52.054;-9.494;2023-04-27T00:18:55;100756.03;;;21.57;37.78
57616;BME280;43816;52.054;-9.494;2023-04-27T00:19:05;100756.03;;;21.57;37.37
57616;BME280;43816;52.054;-9.494;2023-04-27T00:19:16;100754.97;;;21.58;37.74
57616;BME280;43816;52.054;-9.494;2023-04-27T00:19:26;100745.47;;;21.54;37.73
57616;BME280;43816;52.054;-9.494;2023-04-27T00:19:36;100749.22;;;21.53;37.88
57616;BME280;43816;52.054;-9.494;2023-04-27T00:19:47;100760.44;;;21.58;37.84
57616;BME280;43816;52.054;-9.494;2023-04-27T00:19:57;100732.41;;;21.41;37.83
57616;BME280;43816;52.054;-9.494;2023-04-27T00:20:07;100749.03;;;21.54;37.75
57616;BME280;43816;52.054;-9.494;2023-04-27T00:20:18;100745.91;;;21.57;37.79
57616;BME280;43816;52.054;-9.494;2023-04-27T00:20:28;100757.72;;;21.58;37.76
57616;BME280;43816;52.054;-9.494;2023-04-27T00:20:39;100748.19;;;21.54;37.77
57616;BME280;43816;52.054;-9.494;2023-04-27T00:20:49;100754.31;;;21.56;37.58
57616;BME280;43816;52.054;-9.494;2023-04-27T00:20:59;100745.47;;;21.54;37.60
57616;BME280;43816;52.054;-9.494;2023-04-27T00:21:09;100759.59;;;21.57;37.66
57616;BME280;43816;52.054;-9.494;2023-04-27T00:21:20;100753.09;;;21.58;37.86
57616;BME280;43816;52.054;-9.494;2023-04-27T00:21:30;100753.28;;;21.57;37.75
57616;BME280;43816;52.054;-9.494;2023-04-27T00:21:43;100744.81;;;21.52;37.77
57616;BME280;43816;52.054;-9.494;2023-04-27T00:21:53;100744.13;;;21.50;37.79
57616;BME280;43816;52.054;-9.494;2023-04-27T00:22:03;100761.31;;;21.58;37.66
57616;BME280;43816;52.054;-9.494;2023-04-27T00:22:14;100754.13;;;21.57;37.74
57616;BME280;43816;52.054;-9.494;2023-04-27T00:22:24;100755.34;;;21.55;37.76
57616;BME280;43816;52.054;-9.494;2023-04-27T00:22:34;100758.41;;;21.60;37.74
57616;BME280;43816;52.054;-9.494;2023-04-27T00:22:45;100749.03;;;21.54;37.87
57616;BME280;43816;52.054;-9.494;2023-04-27T00:22:55;100729.59;;;21.49;37.84
57616;BME280;43816;52.054;-9.494;2023-04-27T00:23:05;100749.03;;;21.54;37.74
57616;BME280;43816;52.054;-9.494;2023-04-27T00:23:16;100746.47;;;21.53;37.91
57616;BME280;43816;52.054;-9.494;2023-04-27T00:23:26;100719.97;;;21.38;37.62
57616;BME280;43816;52.054;-9.494;2023-04-27T00:23:36;100735.41;;;21.46;38.04
57616;BME280;43816;52.054;-9.494;2023-04-27T00:23:47;100752.22;;;21.58;37.82
57616;BME280;43816;52.054;-9.494;2023-04-27T00:23:57;100712.13;;;21.35;37.62
57616;BME280;43816;52.054;-9.494;2023-04-27T00:24:07;100738.66;;;21.50;37.90
57616;BME280;43816;52.054;-9.494;2023-04-27T00:24:17;100745.09;;;21.57;37.45
57616;BME280;43816;52.054;-9.494;2023-04-27T00:24:28;100726.75;;;21.42;37.93
57616;BME280;43816;52.054;-9.494;2023-04-27T00:24:38;100733.19;;;21.50;37.70
57616;BME280;43816;52.054;-9.494;2023-04-27T00:24:48;100752.22;;;21.58;37.60
57616;BME280;43816;52.054;-9.494;2023-04-27T00:24:59;100733.19;;;21.50;37.63
57616;BME280;43816;52.054;-9.494;2023-04-27T00:25:09;100735.91;;;21.50;37.86
57616;BME280;43816;52.054;-9.494;2023-04-27T00:25:19;100751.22;;;21.59;37.85
57616;BME280;43816;52.054;-9.494;2023-04-27T00:25:30;100750.56;;;21.57;37.58
57616;BME280;43816;52.054;-9.494;2023-04-27T00:25:40;100739.34;;;21.52;37.94
57616;BME280;43816;52.054;-9.494;2023-04-27T00:25:50;100725.72;;;21.43;37.59
57616;BME280;43816;52.054;-9.494;2023-04-27T00:26:01;100748.66;;;21.57;37.78
57616;BME280;43816;52.054;-9.494;2023-04-27T00:26:11;100747.81;;;21.57;37.83
57616;BME280;43816;52.054;-9.494;2023-04-27T00:26:21;100749.88;;;21.55;37.70
57616;BME280;43816;52.054;-9.494;2023-04-27T00:26:31;100736.97;;;21.49;37.98
57616;BME280;43816;52.054;-9.494;2023-04-27T00:26:42;100744.22;;;21.56;37.76
57616;BME280;43816;52.054;-9.494;2023-04-27T00:26:52;100724.19;;;21.41;37.74
57616;BME280;43816;52.054;-9.494;2023-04-27T00:27:02;100745.91;;;21.57;37.60
57616;BME280;43816;52.054;-9.494;2023-04-27T00:27:13;100734.03;;;21.50;37.81
57616;BME280;43816;52.054;-9.494;2023-04-27T00:27:23;100735.53;;;21.53;37.60
57616;BME280;43816;52.054;-9.494;2023-04-27T00:27:33;100741.66;;;21.55;37.67
57616;BME280;43816;52.054;-9.494;2023-04-27T00:27:44;100726.03;;;21.49;37.76
57616;BME280;43816;52.054;-9.494;2023-04-27T00:27:54;100741.47;;;21.56;37.68
57616;BME280;43816;52.054;-9.494;2023-04-27T00:28:05;100717.31;;;21.45;37.64
57616;BME280;43816;52.054;-9.494;2023-04-27T00:28:16;100729.22;;;21.52;37.66
57616;BME280;43816;52.054;-9.494;2023-04-27T00:28:26;100741.88;;;21.53;37.87
57616;BME280;43816;52.054;-9.494;2023-04-27T00:28:36;100732.59;;;21.54;37.78
57616;BME280;43816;52.054;-9.494;2023-04-27T00:28:47;100736.19;;;21.55;38.07
57616;BME280;43816;52.054;-9.494;2023-04-27T00:28:57;100700.31;;;21.35;37.78
57616;BME280;43816;52.054;-9.494;2023-04-27T00:29:07;100736.00;;;21.56;37.57
57616;BME280;43816;52.054;-9.494;2023-04-27T00:29:18;100735.16;;;21.56;37.63
57616;BME280;43816;52.054;-9.494;2023-04-27T00:29:28;100718.84;;;21.48;37.73
57616;BME280;43816;52.054;-9.494;2023-04-27T00:29:39;100730.72;;;21.55;37.63
57616;BME280;43816;52.054;-9.494;2023-04-27T00:29:49;100721.25;;;21.42;37.92
57616;BME280;43816;52.054;-9.494;2023-04-27T00:29:59;100736.88;;;21.57;37.60
57616;BME280;43816;52.054;-9.494;2023-04-27T00:30:10;100733.44;;;21.55;37.92
57616;BME280;43816;52.054;-9.494;2023-04-27T00:30:20;100724.31;;;21.48;37.63
57616;BME280;43816;52.054;-9.494;2023-04-27T00:30:30;100740.44;;;21.57;37.53
57616;BME280;43816;52.054;-9.494;2023-04-27T00:30:41;100729.03;;;21.54;37.78
57616;BME280;43816;52.054;-9.494;2023-04-27T00:30:51;100721.56;;;21.48;37.83
57616;BME280;43816;52.054;-9.494;2023-04-27T00:31:01;100711.34;;;21.41;37.79
57616;BME280;43816;52.054;-9.494;2023-04-27T00:31:11;100711.34;;;21.41;37.82
57616;BME280;43816;52.054;-9.494;2023-04-27T00:31:22;100699.47;;;21.34;37.86
57616;BME280;43816;52.054;-9.494;2023-04-27T00:31:32;100727.31;;;21.53;37.80
57616;BME280;43816;52.054;-9.494;2023-04-27T00:31:42;100732.59;;;21.54;37.70
57616;BME280;43816;52.054;-9.494;2023-04-27T00:31:53;100740.63;;;21.56;37.74
57616;BME280;43816;52.054;-9.494;2023-04-27T00:32:03;100730.94;;;21.53;37.69
57616;BME280;43816;52.054;-9.494;2023-04-27T00:32:13;100737.91;;;21.56;37.93
57616;BME280;43816;52.054;-9.494;2023-04-27T00:32:23;100736.41;;;21.53;37.75
57616;BME280;43816;52.054;-9.494;2023-04-27T00:32:34;100742.34;;;21.57;37.77
57616;BME280;43816;52.054;-9.494;2023-04-27T00:32:44;100726.66;;;21.51;37.72
57616;BME280;43816;52.054;-9.494;2023-04-27T00:32:54;100735.16;;;21.56;37.93
57616;BME280;43816;52.054;-9.494;2023-04-27T00:33:05;100731.97;;;21.52;37.74
57616;BME280;43816;52.054;-9.494;2023-04-27T00:33:16;100734.50;;;21.54;38.00
57616;BME280;43816;52.054;-9.494;2023-04-27T00:33:26;100728.19;;;21.53;38.07
57616;BME280;43816;52.054;-9.494;2023-04-27T00:33:36;100732.59;;;21.54;37.80
57616;BME280;43816;52.054;-9.494;2023-04-27T00:33:47;100725.84;;;21.50;37.57
57616;BME280;43816;52.054;-9.494;2023-04-27T00:33:57;100731.31;;;21.50;37.55
57616;BME280;43816;52.054;-9.494;2023-04-27T00:34:07;100734.31;;;21.55;37.71
57616;BME280;43816;52.054;-9.494;2023-04-27T00:34:17;100717.09;;;21.47;37.73
57616;BME280;43816;52.054;-9.494;2023-04-27T00:34:28;100728.38;;;21.52;37.81
57616;BME280;43816;52.054;-9.494;2023-04-27T00:34:38;100720.34;;;21.50;37.63
57616;BME280;43816;52.054;-9.494;2023-04-27T00:34:48;100730.72;;;21.55;37.84
57616;BME280;43816;52.054;-9.494;2023-04-27T00:34:59;100733.44;;;21.55;37.83
57616;BME280;43816;52.054;-9.494;2023-04-27T00:35:09;100725.84;;;21.50;37.87
57616;BME280;43816;52.054;-9.494;2023-04-27T00:35:19;100729.88;;;21.54;37.69
57616;BME280;43816;52.054;-9.494;2023-04-27T00:35:34;100734.13;;;21.57;37.78
57616;BME280;43816;52.054;-9.494;2023-04-27T00:35:44;100716.56;;;21.51;37.69
57616;BME280;43816;52.054;-9.494;2023-04-27T00:35:58;100710.97;;;21.44;37.84
57616;BME280;43816;52.054;-9.494;2023-04-27T00:36:09;100722.41;;;21.48;37.62
57616;BME280;43816;52.054;-9.494;2023-04-27T00:36:19;100704.38;;;21.39;37.54
57616;BME280;43816;52.054;-9.494;2023-04-27T00:36:29;100727.97;;;21.55;37.70
57616;BME280;43816;52.054;-9.494;2023-04-27T00:36:42;100726.94;;;21.56;37.93
57616;BME280;43816;52.054;-9.494;2023-04-27T00:36:52;100723.28;;;21.49;37.67
57616;BME280;43816;52.054;-9.494;2023-04-27T00:37:03;100717.09;;;21.47;37.68
57616;BME280;43816;52.054;-9.494;2023-04-27T00:37:14;100721.19;;;21.51;37.88
57616;BME280;43816;52.054;-9.494;2023-04-27T00:37:24;100717.81;;;21.49;37.83
57616;BME280;43816;52.054;-9.494;2023-04-27T00:37:34;100720.34;;;21.50;37.71
57616;BME280;43816;52.054;-9.494;2023-04-27T00:37:45;100708.22;;;21.44;37.86
57616;BME280;43816;52.054;-9.494;2023-04-27T00:37:55;100716.09;;;21.48;37.80
57616;BME280;43816;52.054;-9.494;2023-04-27T00:38:05;100725.66;;;21.52;37.68
57616;BME280;43816;52.054;-9.494;2023-04-27T00:38:16;100727.97;;;21.55;38.03
57616;BME280;43816;52.054;-9.494;2023-04-27T00:38:29;100710.97;;;21.44;37.64
57616;BME280;43816;52.054;-9.494;2023-04-27T00:38:39;100713.53;;;21.46;37.81
57616;BME280;43816;52.054;-9.494;2023-04-27T00:38:50;100723.75;;;21.52;37.80
57616;BME280;43816;52.054;-9.494;2023-04-27T00:39:02;100715.06;;;21.49;37.97
57616;BME280;43816;52.054;-9.494;2023-04-27T00:39:12;100725.25;;;21.55;37.80
57616;BME280;43816;52.054;-9.494;2023-04-27T00:39:22;100718.28;;;21.52;37.76
57616;BME280;43816;52.054;-9.494;2023-04-27T00:39:33;100717.81;;;21.49;37.76
57616;BME280;43816;52.054;-9.494;2023-04-27T00:39:43;100716.94;;;21.48;38.20
57616;BME280;43816;52.054;-9.494;2023-04-27T00:39:54;100717.31;;;21.45;37.74
57616;BME280;43816;52.054;-9.494;2023-04-27T00:40:05;100706.16;;;21.47;37.57
57616;BME280;43816;52.054;-9.494;2023-04-27T00:40:15;100719.97;;;21.53;37.48
57616;BME280;43816;52.054;-9.494;2023-04-27T00:40:25;100721.66;;;21.54;37.75
57616;BME280;43816;52.054;-9.494;2023-04-27T00:40:36;100721.84;;;21.53;37.50
57616;BME280;43816;52.054;-9.494;2023-04-27T00:40:46;100722.22;;;21.50;37.65
57616;BME280;43816;52.054;-9.494;2023-04-27T00:41:05;100725.25;;;21.55;37.79
57616;BME280;43816;52.054;-9.494;2023-04-27T00:41:15;100719.50;;;21.50;37.82
57616;BME280;43816;52.054;-9.494;2023-04-27T00:41:25;100713.38;;;21.48;37.83
57616;BME280;43816;52.054;-9.494;2023-04-27T00:41:36;100715.06;;;21.49;37.58
57616;BME280;43816;52.054;-9.494;2023-04-27T00:41:47;100723.56;;;21.54;37.48
57616;BME280;43816;52.054;-9.494;2023-04-27T00:41:57;100715.34;;;21.54;37.59
57616;BME280;43816;52.054;-9.494;2023-04-27T00:42:07;100726.28;;;21.54;37.78
57616;BME280;43816;52.054;-9.494;2023-04-27T00:42:17;100717.81;;;21.49;37.75
57616;BME280;43816;52.054;-9.494;2023-04-27T00:42:28;100708.88;;;21.47;37.60
57616;BME280;43816;52.054;-9.494;2023-04-27T00:42:38;100727.31;;;21.53;37.67
57616;BME280;43816;52.054;-9.494;2023-04-27T00:42:48;100723.56;;;21.54;37.88
57616;BME280;43816;52.054;-9.494;2023-04-27T00:42:59;100711.47;;;21.48;37.84
57616;BME280;43816;52.054;-9.494;2023-04-27T00:43:09;100709.59;;;21.49;37.59
57616;BME280;43816;52.054;-9.494;2023-04-27T00:43:19;100717.03;;;21.55;37.76
57616;BME280;43816;52.054;-9.494;2023-04-27T00:43:30;100718.28;;;21.52;37.68
57616;BME280;43816;52.054;-9.494;2023-04-27T00:43:41;100720.81;;;21.54;38.01
57616;BME280;43816;52.054;-9.494;2023-04-27T00:43:52;100702.41;;;21.48;37.76
57616;BME280;43816;52.054;-9.494;2023-04-27T00:44:02;100707.22;;;21.46;37.80
57616;BME280;43816;52.054;-9.494;2023-04-27T00:44:12;100704.31;;;21.47;37.70
57616;BME280;43816;52.054;-9.494;2023-04-27T00:44:24;100713.63;;;21.53;37.93
57616;BME280;43816;52.054;-9.494;2023-04-27T00:44:34;100717.03;;;21.55;38.15
57616;BME280;43816;52.054;-9.494;2023-04-27T00:44:45;100711.28;;;21.50;37.79
57616;BME280;43816;52.054;-9.494;2023-04-27T00:44:56;100715.34;;;21.54;37.76
57616;BME280;43816;52.054;-9.494;2023-04-27T00:45:07;100712.59;;;21.54;37.76
57616;BME280;43816;52.054;-9.494;2023-04-27T00:45:18;100720.81;;;21.54;37.60
57616;BME280;43816;52.054;-9.494;2023-04-27T00:45:28;100713.44;;;21.54;37.88
57616;BME280;43816;52.054;-9.494;2023-04-27T00:45:41;100701.00;;;21.52;38.06
57616;BME280;43816;52.054;-9.494;2023-04-27T00:45:52;100709.22;;;21.52;38.10
57616;BME280;43816;52.054;-9.494;2023-04-27T00:46:02;100711.78;;;21.53;37.73
57616;BME280;43816;52.054;-9.494;2023-04-27T00:46:13;100720.81;;;21.54;37.91
57616;BME280;43816;52.054;-9.494;2023-04-27T00:46:24;100708.72;;;21.48;37.65
57616;BME280;43816;52.054;-9.494;2023-04-27T00:46:34;100713.81;;;21.51;38.01
57616;BME280;43816;52.054;-9.494;2023-04-27T00:46:45;100704.31;;;21.47;37.54
57616;BME280;43816;52.054;-9.494;2023-04-27T00:46:57;100706.47;;;21.52;37.63
57616;BME280;43816;52.054;-9.494;2023-04-27T00:47:08;100710.25;;;21.51;37.83
57616;BME280;43816;52.054;-9.494;2023-04-27T00:47:19;100704.59;;;21.52;37.66
57616;BME280;43816;52.054;-9.494;2023-04-27T00:47:30;100704.31;;;21.47;37.79
57616;BME280;43816;52.054;-9.494;2023-04-27T00:47:41;100688.16;;;21.37;37.74
57616;BME280;43816;52.054;-9.494;2023-04-27T00:47:52;100694.94;;;21.41;37.79
57616;BME280;43816;52.054;-9.494;2023-04-27T00:48:02;100710.25;;;21.51;37.53
57616;BME280;43816;52.054;-9.494;2023-04-27T00:48:13;100710.25;;;21.51;37.87
57616;BME280;43816;52.054;-9.494;2023-04-27T00:48:23;100717.25;;;21.53;37.70
57616;BME280;43816;52.054;-9.494;2023-04-27T00:48:34;100684.38;;;21.38;37.84
57616;BME280;43816;52.054;-9.494;2023-04-27T00:48:44;100710.25;;;21.51;37.80
57616;BME280;43816;52.054;-9.494;2023-04-27T00:48:55;100710.25;;;21.51;37.89
57616;BME280;43816;52.054;-9.494;2023-04-27T00:49:05;100707.50;;;21.51;37.51
57616;BME280;43816;52.054;-9.494;2023-04-27T00:49:16;100711.78;;;21.53;37.76
57616;BME280;43816;52.054;-9.494;2023-04-27T00:49:26;100706.66;;;21.50;37.72
57616;BME280;43816;52.054;-9.494;2023-04-27T00:49:37;100713.63;;;21.53;37.99
57616;BME280;43816;52.054;-9.494;2023-04-27T00:49:48;100703.75;;;21.52;37.72
57616;BME280;43816;52.054;-9.494;2023-04-27T00:49:58;100703.75;;;21.52;37.80
57616;BME280;43816;52.054;-9.494;2023-04-27T00:50:09;100703.75;;;21.52;38.05
57616;BME280;43816;52.054;-9.494;2023-04-27T00:50:26;100701.00;;;21.52;37.85
57616;BME280;43816;52.054;-9.494;2023-04-27T00:50:38;100695.91;;;21.49;37.96
57616;BME280;43816;52.054;-9.494;2023-04-27T00:50:48;100690.78;;;21.46;37.99
57616;BME280;43816;52.054;-9.494;2023-04-27T00:50:59;100710.91;;;21.53;37.94
57616;BME280;43816;52.054;-9.494;2023-04-27T00:51:09;100698.47;;;21.50;37.78
57616;BME280;43816;52.054;-9.494;2023-04-27T00:51:19;100695.53;;;21.52;37.97
57616;BME280;43816;52.054;-9.494;2023-04-27T00:51:30;100707.50;;;21.51;37.69
57616;BME280;43816;52.054;-9.494;2023-04-27T00:51:40;100692.47;;;21.47;37.79
57616;BME280;43816;52.054;-9.494;2023-04-27T00:51:50;100701.00;;;21.52;38.10
57616;BME280;43816;52.054;-9.494;2023-04-27T00:52:01;100691.63;;;21.46;38.15
57616;BME280;43816;52.054;-9.494;2023-04-27T00:52:11;100698.28;;;21.52;37.84
57616;BME280;43816;52.054;-9.494;2023-04-27T00:52:22;100694.19;;;21.48;37.75
57616;BME280;43816;52.054;-9.494;2023-04-27T00:52:32;100702.41;;;21.48;37.73
57616;BME280;43816;52.054;-9.494;2023-04-27T00:52:43;100693.19;;;21.49;37.66
57616;BME280;43816;52.054;-9.494;2023-04-27T00:52:53;100698.28;;;21.52;37.80
57616;BME280;43816;52.054;-9.494;2023-04-27T00:53:04;100695.91;;;21.49;37.75
57616;BME280;43816;52.054;-9.494;2023-04-27T00:53:15;100696.94;;;21.48;37.96
57616;BME280;43816;52.054;-9.494;2023-04-27T00:53:26;100692.31;;;21.48;37.87
57616;BME280;43816;52.054;-9.494;2023-04-27T00:53:36;100688.03;;;21.46;37.80
57616;BME280;43816;52.054;-9.494;2023-04-27T00:53:48;100696.56;;;21.51;37.82
57616;BME280;43816;52.054;-9.494;2023-04-27T00:54:00;100685.69;;;21.42;37.75
57616;BME280;43816;52.054;-9.494;2023-04-27T00:54:11;100697.41;;;21.51;37.77
57616;BME280;43816;52.054;-9.494;2023-04-27T00:54:22;100682.31;;;21.40;37.75
57616;BME280;43816;52.054;-9.494;2023-04-27T00:54:33;100690.97;;;21.44;37.99